createdAt,value
2022-10-22T04:00:28.848Z,14.99
2022-10-22T04:01:28.874Z,14.89
2022-10-22T04:02:28.771Z,14.92
2022-10-22T04:03:28.757Z,14.99
2022-10-22T04:04:28.765Z,14.84
2022-10-22T04:05:28.738Z,14.83
2022-10-22T04:06:28.725Z,14.84
2022-10-22T04:07:28.717Z,14.83
2022-10-22T04:08:28.701Z,14.72
2022-10-22T04:09:28.698Z,14.78
2022-10-22T04:10:28.681Z,14.73
2022-10-22T04:11:33.687Z,14.73
2022-10-22T04:12:28.657Z,14.75
2022-10-22T04:13:28.705Z,14.70
2022-10-22T04:14:28.670Z,14.73
2022-10-22T04:15:28.620Z,14.64
2022-10-22T04:16:30.592Z,14.70
2022-10-22T04:17:28.596Z,14.73
2022-10-22T04:18:28.587Z,14.64
2022-10-22T04:19:28.588Z,14.69
2022-10-22T04:20:28.561Z,14.72
2022-10-22T04:21:28.550Z,14.70
2022-10-22T04:22:33.562Z,14.69
2022-10-22T04:23:28.526Z,14.68
2022-10-22T04:24:28.527Z,14.65
2022-10-22T04:25:28.502Z,14.69
2022-10-22T04:26:28.496Z,14.70
2022-10-22T04:27:28.483Z,14.62
2022-10-22T04:28:28.471Z,14.72
2022-10-22T04:29:28.488Z,14.69
2022-10-22T04:30:28.452Z,14.72
2022-10-22T04:31:28.435Z,14.65
2022-10-22T04:32:28.444Z,14.70
2022-10-22T04:33:33.437Z,14.73
2022-10-22T04:34:28.416Z,14.72
2022-10-22T04:35:28.390Z,14.73
2022-10-22T04:36:28.379Z,14.70
2022-10-22T04:37:28.371Z,14.75
2022-10-22T04:38:28.355Z,14.73
2022-10-22T04:39:28.397Z,14.75
2022-10-22T04:40:28.355Z,14.72
2022-10-22T04:41:28.351Z,14.70
2022-10-22T04:42:28.312Z,14.72
2022-10-22T04:43:28.298Z,14.70
2022-10-22T04:44:33.321Z,14.69
2022-10-22T04:45:28.276Z,14.89
2022-10-22T04:46:28.272Z,14.86
2022-10-22T04:47:28.253Z,14.73
2022-10-22T04:48:28.265Z,14.75
2022-10-22T04:49:28.233Z,14.75
2022-10-22T04:50:28.232Z,14.77
2022-10-22T04:51:28.208Z,14.78
2022-10-22T04:52:28.198Z,14.75
2022-10-22T04:53:28.187Z,14.68
2022-10-22T04:54:32.051Z,14.70
2022-10-22T04:55:34.207Z,14.72
2022-10-22T04:56:28.152Z,14.69
2022-10-22T04:57:28.142Z,14.68
2022-10-22T04:58:28.133Z,14.68
2022-10-22T04:59:28.117Z,14.69
2022-10-22T05:00:28.124Z,14.68
2022-10-22T05:01:28.139Z,14.69
2022-10-22T05:02:28.087Z,14.57
2022-10-22T05:03:28.075Z,14.61
2022-10-22T05:04:28.082Z,14.61
2022-10-22T05:05:28.060Z,14.62
2022-10-22T05:06:33.061Z,14.64
2022-10-22T05:07:28.029Z,14.58
2022-10-22T05:08:28.017Z,14.50
2022-10-22T05:09:28.010Z,14.55
2022-10-22T05:10:28.009Z,14.51
2022-10-22T05:11:27.990Z,14.51
2022-10-22T05:12:27.972Z,14.54
2022-10-22T05:13:27.959Z,14.47
2022-10-22T05:14:27.950Z,14.46
2022-10-22T05:15:27.951Z,14.45
2022-10-22T05:16:27.932Z,14.55
2022-10-22T05:17:32.936Z,14.50
2022-10-22T05:18:27.906Z,14.46
2022-10-22T05:19:27.890Z,14.50
2022-10-22T05:20:27.909Z,14.39
2022-10-22T05:21:27.866Z,14.35
2022-10-22T05:22:27.895Z,14.39
2022-10-22T05:23:27.844Z,14.42
2022-10-22T05:24:27.837Z,14.42
2022-10-22T05:25:27.837Z,14.40
2022-10-22T05:26:27.814Z,14.39
2022-10-22T05:27:27.797Z,14.35
2022-10-22T05:28:32.815Z,14.35
2022-10-22T05:29:27.773Z,14.35
2022-10-22T05:30:27.782Z,14.28
2022-10-22T05:31:27.755Z,14.36
2022-10-22T05:32:27.751Z,14.28
2022-10-22T05:33:27.731Z,14.29
2022-10-22T05:34:27.718Z,14.32
2022-10-22T05:35:27.731Z,14.32
2022-10-22T05:36:27.717Z,14.33
2022-10-22T05:37:27.728Z,14.33
2022-10-22T05:38:27.675Z,14.35
2022-10-22T05:39:32.686Z,14.32
2022-10-22T05:40:31.146Z,14.33
2022-10-22T05:41:27.647Z,14.35
2022-10-22T05:42:27.640Z,14.35
2022-10-22T05:43:27.624Z,14.37
2022-10-22T05:44:27.603Z,14.40
2022-10-22T05:45:27.608Z,14.40
2022-10-22T05:46:27.586Z,14.39
2022-10-22T05:47:27.567Z,14.42
2022-10-22T05:48:27.603Z,14.45
2022-10-22T05:49:27.548Z,14.37
2022-10-22T05:50:32.573Z,14.39
2022-10-22T05:51:27.523Z,14.37
2022-10-22T05:52:27.532Z,14.35
2022-10-22T05:53:27.514Z,14.42
2022-10-22T05:54:27.491Z,14.42
2022-10-22T05:55:27.491Z,14.39
2022-10-22T05:56:27.468Z,14.35
2022-10-22T05:57:27.454Z,14.33
2022-10-22T05:58:27.443Z,14.35
2022-10-22T05:59:27.434Z,14.37
2022-10-22T06:00:27.432Z,14.42
2022-10-22T06:01:32.430Z,14.42
2022-10-22T06:02:27.478Z,14.46
2022-10-22T06:03:27.387Z,14.43
2022-10-22T06:04:27.376Z,14.39
2022-10-22T06:05:27.381Z,14.39
2022-10-22T06:06:27.359Z,14.37
2022-10-22T06:07:27.338Z,14.42
2022-10-22T06:08:27.348Z,14.35
2022-10-22T06:09:27.488Z,14.36
2022-10-22T06:10:27.318Z,14.32
2022-10-22T06:11:28.926Z,14.32
2022-10-22T06:12:33.303Z,14.20
2022-10-22T06:13:27.271Z,14.12
2022-10-22T06:14:27.334Z,14.20
2022-10-22T06:15:27.257Z,14.09
2022-10-22T06:16:27.237Z,14.07
2022-10-22T06:17:27.241Z,14.03
2022-10-22T06:18:27.214Z,14.09
2022-10-22T06:19:27.216Z,14.14
2022-10-22T06:20:27.313Z,14.02
2022-10-22T06:21:27.181Z,14.06
2022-10-22T06:22:27.172Z,14.12
2022-10-22T06:23:32.194Z,14.07
2022-10-22T06:24:27.146Z,14.10
2022-10-22T06:25:27.144Z,14.06
2022-10-22T06:26:27.125Z,14.12
2022-10-22T06:27:27.114Z,14.09
2022-10-22T06:28:27.118Z,14.09
2022-10-22T06:29:27.086Z,14.14
2022-10-22T06:30:27.149Z,14.12
2022-10-22T06:31:27.065Z,14.17
2022-10-22T06:32:27.054Z,14.10
2022-10-22T06:33:27.044Z,14.17
2022-10-22T06:34:32.054Z,14.15
2022-10-22T06:35:27.047Z,14.12
2022-10-22T06:36:27.062Z,14.17
2022-10-22T06:37:26.996Z,14.15
2022-10-22T06:38:26.986Z,14.24
2022-10-22T06:39:26.989Z,14.15
2022-10-22T06:40:27.054Z,14.25
2022-10-22T06:41:29.513Z,14.27
2022-10-22T06:42:26.938Z,14.32
2022-10-22T06:43:26.926Z,14.25
2022-10-22T06:44:26.915Z,14.25
2022-10-22T06:45:31.939Z,14.33
2022-10-22T06:46:26.971Z,14.32
2022-10-22T06:47:26.890Z,14.32
2022-10-22T06:48:26.873Z,14.37
2022-10-22T06:49:26.857Z,14.39
2022-10-22T06:50:26.853Z,14.32
2022-10-22T06:51:26.852Z,14.37
2022-10-22T06:52:26.825Z,14.35
2022-10-22T06:53:26.829Z,14.35
2022-10-22T06:54:26.801Z,14.39
2022-10-22T06:55:26.811Z,14.35
2022-10-22T06:56:31.812Z,14.36
2022-10-22T06:57:26.772Z,14.33
2022-10-22T06:58:26.760Z,14.35
2022-10-22T06:59:26.743Z,14.39
2022-10-22T07:00:26.880Z,14.43
2022-10-22T07:01:26.789Z,14.39
2022-10-22T07:02:26.712Z,14.47
2022-10-22T07:03:26.709Z,14.50
2022-10-22T07:04:26.688Z,14.54
2022-10-22T07:05:26.676Z,14.50
2022-10-22T07:06:26.675Z,14.51
2022-10-22T07:07:31.676Z,14.51
2022-10-22T07:08:26.644Z,14.52
2022-10-22T07:09:26.634Z,14.57
2022-10-22T07:10:29.910Z,14.54
2022-10-22T07:11:26.631Z,14.54
2022-10-22T07:12:26.599Z,14.61
2022-10-22T07:13:26.584Z,14.68
2022-10-22T07:14:26.580Z,14.55
2022-10-22T07:15:26.564Z,14.68
2022-10-22T07:16:31.170Z,14.65
2022-10-22T07:17:27.577Z,14.75
2022-10-22T07:18:31.567Z,14.73
2022-10-22T07:19:26.516Z,14.77
2022-10-22T07:20:26.516Z,14.73
2022-10-22T07:21:26.493Z,14.72
2022-10-22T07:22:26.486Z,14.89
2022-10-22T07:23:26.476Z,14.81
2022-10-22T07:24:26.460Z,14.83
2022-10-22T07:25:26.469Z,14.81
2022-10-22T07:26:26.441Z,14.94
2022-10-22T07:27:26.444Z,14.86
2022-10-22T07:28:26.416Z,14.99
2022-10-22T07:29:31.426Z,14.89
2022-10-22T07:30:26.403Z,15.01
2022-10-22T07:31:26.381Z,15.01
2022-10-22T07:32:26.372Z,14.99
2022-10-22T07:33:26.363Z,14.96
2022-10-22T07:34:26.350Z,15.03
2022-10-22T07:35:26.346Z,15.13
2022-10-22T07:36:26.330Z,15.14
2022-10-22T07:37:26.320Z,15.10
2022-10-22T07:38:26.305Z,15.17
2022-10-22T07:39:26.293Z,15.11
2022-10-22T07:40:31.311Z,15.16
2022-10-22T07:41:26.267Z,15.23
2022-10-22T07:42:26.298Z,15.09
2022-10-22T07:43:26.263Z,15.20
2022-10-22T07:44:26.240Z,15.25
2022-10-22T07:45:26.237Z,15.32
2022-10-22T07:46:26.214Z,15.28
2022-10-22T07:47:26.198Z,15.35
2022-10-22T07:48:26.189Z,15.27
2022-10-22T07:49:26.181Z,15.25
2022-10-22T07:50:26.177Z,15.38
2022-10-22T07:51:31.178Z,15.31
2022-10-22T07:52:26.145Z,15.29
2022-10-22T07:53:26.139Z,15.25
2022-10-22T07:54:26.124Z,15.28
2022-10-22T07:55:26.122Z,15.29
2022-10-22T07:56:26.103Z,15.20
2022-10-22T07:57:26.095Z,15.25
2022-10-22T07:58:26.080Z,15.25
2022-10-22T07:59:26.086Z,15.28
2022-10-22T08:00:26.200Z,15.31
2022-10-22T08:01:26.058Z,15.27
2022-10-22T08:02:31.052Z,15.29
2022-10-22T08:03:26.022Z,15.41
2022-10-22T08:04:26.008Z,15.41
2022-10-22T08:05:26.004Z,15.38
2022-10-22T08:06:25.985Z,15.49
2022-10-22T08:08:29.686Z,15.51
2022-10-22T08:09:25.963Z,15.47
2022-10-22T08:10:25.951Z,15.60
2022-10-22T08:11:25.928Z,15.56
2022-10-22T08:12:25.916Z,15.65
2022-10-22T08:13:30.989Z,15.54
2022-10-22T08:14:25.897Z,15.65
2022-10-22T08:15:25.919Z,15.74
2022-10-22T08:16:25.871Z,15.71
2022-10-22T08:17:25.868Z,15.89
2022-10-22T08:18:25.873Z,15.82
2022-10-22T08:19:25.838Z,15.96
2022-10-22T08:20:25.825Z,15.93
2022-10-22T08:21:25.825Z,16.00
2022-10-22T08:22:25.803Z,16.08
2022-10-22T08:23:26.218Z,16.04
2022-10-22T08:24:30.805Z,16.25
2022-10-22T08:25:25.768Z,16.27
2022-10-22T08:26:25.775Z,16.28
2022-10-22T08:27:25.751Z,16.28
2022-10-22T08:28:25.735Z,16.43
2022-10-22T08:29:25.728Z,16.57
2022-10-22T08:30:25.711Z,16.78
2022-10-22T08:31:25.738Z,16.96
2022-10-22T08:33:25.681Z,17.16
2022-10-22T08:34:25.664Z,17.31
2022-10-22T08:35:30.676Z,17.58
2022-10-22T08:36:25.653Z,17.86
2022-10-22T08:37:25.644Z,18.33
2022-10-22T08:38:25.620Z,18.37
2022-10-22T08:39:25.616Z,18.42
2022-10-22T08:40:25.596Z,18.54
2022-10-22T08:41:25.603Z,18.44
2022-10-22T08:42:25.577Z,18.45
2022-10-22T08:43:25.564Z,18.67
2022-10-22T08:44:25.552Z,18.65
2022-10-22T08:45:25.541Z,18.45
2022-10-22T08:46:30.577Z,18.52
2022-10-22T08:47:25.524Z,18.54
2022-10-22T08:48:25.506Z,18.48
2022-10-22T08:49:25.502Z,18.39
2022-10-22T08:50:25.490Z,18.37
2022-10-22T08:51:25.488Z,18.30
2022-10-22T08:52:25.459Z,18.26
2022-10-22T08:53:25.449Z,18.27
2022-10-22T08:54:25.455Z,18.39
2022-10-22T08:55:25.428Z,18.47
2022-10-22T08:56:25.424Z,18.55
2022-10-22T08:58:25.390Z,18.90
2022-10-22T08:59:25.391Z,18.65
2022-10-22T09:00:25.396Z,18.55
2022-10-22T09:01:25.368Z,18.35
2022-10-22T09:02:25.366Z,18.29
2022-10-22T09:03:25.340Z,18.35
2022-10-22T09:04:25.443Z,18.44
2022-10-22T09:05:25.316Z,18.91
2022-10-22T09:06:25.311Z,19.02
2022-10-22T09:07:25.288Z,19.07
2022-10-22T09:08:30.302Z,18.95
2022-10-22T09:09:25.267Z,18.81
2022-10-22T09:10:25.258Z,18.36
2022-10-22T09:11:25.261Z,18.03
2022-10-22T09:12:25.236Z,18.15
2022-10-22T09:13:25.224Z,18.11
2022-10-22T09:14:25.208Z,18.26
2022-10-22T09:15:25.205Z,18.41
2022-10-22T09:16:25.198Z,18.39
2022-10-22T09:17:25.176Z,18.36
2022-10-22T09:18:25.182Z,18.50
2022-10-22T09:19:30.185Z,18.39
2022-10-22T09:20:25.140Z,18.47
2022-10-22T09:21:25.142Z,18.50
2022-10-22T09:22:25.272Z,18.45
2022-10-22T09:23:25.107Z,18.39
2022-10-22T09:24:26.624Z,18.48
2022-10-22T09:25:25.090Z,18.50
2022-10-22T09:26:25.087Z,18.52
2022-10-22T09:27:25.067Z,18.44
2022-10-22T09:28:25.061Z,18.60
2022-10-22T09:29:25.040Z,18.75
2022-10-22T09:30:30.048Z,18.82
2022-10-22T09:31:25.035Z,19.00
2022-10-22T09:32:25.012Z,18.72
2022-10-22T09:33:25.005Z,18.65
2022-10-22T09:34:25.000Z,18.72
2022-10-22T09:35:24.975Z,18.65
2022-10-22T09:36:24.971Z,18.81
2022-10-22T09:37:24.968Z,18.62
2022-10-22T09:38:24.952Z,18.51
2022-10-22T09:39:24.935Z,18.51
2022-10-22T09:40:24.917Z,18.54
2022-10-22T09:41:29.944Z,18.47
2022-10-22T09:42:24.894Z,18.50
2022-10-22T09:43:24.883Z,18.62
2022-10-22T09:44:24.869Z,18.52
2022-10-22T09:45:24.860Z,18.66
2022-10-22T09:46:24.864Z,18.80
2022-10-22T09:47:32.724Z,18.87
2022-10-22T09:48:25.828Z,18.98
2022-10-22T09:49:24.817Z,18.87
2022-10-22T09:50:24.835Z,18.94
2022-10-22T09:51:24.809Z,18.95
2022-10-22T09:52:29.852Z,18.87
2022-10-22T09:53:24.790Z,19.11
2022-10-22T09:54:24.788Z,19.06
2022-10-22T09:55:24.745Z,19.19
2022-10-22T09:56:24.746Z,19.31
2022-10-22T09:57:24.724Z,19.58
2022-10-22T09:58:24.715Z,19.46
2022-10-22T09:59:24.700Z,19.46
2022-10-22T10:00:24.690Z,19.39
2022-10-22T10:01:24.692Z,19.36
2022-10-22T10:02:37.975Z,19.16
2022-10-22T10:03:30.816Z,19.16
2022-10-22T10:05:24.639Z,19.28
2022-10-22T10:06:24.648Z,19.19
2022-10-22T10:07:24.609Z,19.41
2022-10-22T10:08:24.596Z,19.71
2022-10-22T10:09:24.591Z,19.74
2022-10-22T10:10:24.596Z,19.74
2022-10-22T10:11:28.903Z,19.83
2022-10-22T10:12:24.555Z,19.81
2022-10-22T10:13:24.543Z,19.99
2022-10-22T10:14:29.551Z,20.14
2022-10-22T10:15:24.522Z,20.52
2022-10-22T10:16:24.518Z,20.69
2022-10-22T10:17:24.500Z,20.64
2022-10-22T10:18:24.484Z,20.74
2022-10-22T10:19:24.481Z,20.72
2022-10-22T10:20:24.470Z,20.50
2022-10-22T10:21:24.492Z,20.21
2022-10-22T10:22:24.460Z,20.11
2022-10-22T10:23:25.339Z,20.06
2022-10-22T10:24:24.419Z,19.83
2022-10-22T10:25:29.431Z,19.87
2022-10-22T10:26:24.409Z,19.80
2022-10-22T10:27:24.389Z,19.81
2022-10-22T10:28:24.373Z,19.87
2022-10-22T10:29:24.403Z,19.84
2022-10-22T10:30:24.357Z,19.78
2022-10-22T10:31:24.379Z,19.86
2022-10-22T10:32:24.584Z,19.61
2022-10-22T10:33:24.318Z,19.46
2022-10-22T10:34:24.309Z,19.37
2022-10-22T10:35:24.297Z,19.32
2022-10-22T10:36:29.319Z,19.33
2022-10-22T10:37:24.276Z,19.32
2022-10-22T10:38:27.295Z,19.47
2022-10-22T10:39:25.254Z,19.28
2022-10-22T10:40:24.244Z,19.16
2022-10-22T10:41:24.244Z,19.07
2022-10-22T10:42:24.219Z,18.94
2022-10-22T10:43:24.208Z,19.06
2022-10-22T10:44:24.197Z,19.04
2022-10-22T10:45:24.185Z,19.00
2022-10-22T10:46:24.182Z,19.02
2022-10-22T10:47:29.189Z,18.94
2022-10-22T10:48:24.154Z,18.88
2022-10-22T10:49:24.143Z,18.84
2022-10-22T10:50:24.127Z,18.76
2022-10-22T10:51:24.162Z,18.78
2022-10-22T10:52:24.133Z,18.82
2022-10-22T10:53:24.104Z,18.80
2022-10-22T10:54:24.102Z,18.81
2022-10-22T10:55:24.072Z,18.72
2022-10-22T10:56:24.072Z,18.67
2022-10-22T10:57:24.055Z,18.69
2022-10-22T10:58:29.063Z,18.63
2022-10-22T10:59:24.026Z,18.67
2022-10-22T11:00:24.031Z,18.63
2022-10-22T11:01:24.071Z,18.66
2022-10-22T11:02:23.996Z,18.67
2022-10-22T11:03:23.985Z,18.75
2022-10-22T11:04:23.968Z,18.82
2022-10-22T11:05:24.068Z,18.92
2022-10-22T11:06:25.596Z,19.10
2022-10-22T11:07:34.291Z,19.10
2022-10-22T11:08:24.928Z,19.32
2022-10-22T11:09:28.953Z,19.36
2022-10-22T11:10:23.908Z,19.28
2022-10-22T11:11:23.930Z,19.22
2022-10-22T11:12:23.877Z,19.16
2022-10-22T11:13:23.868Z,19.08
2022-10-22T11:14:25.332Z,18.98
2022-10-22T11:15:23.846Z,19.07
2022-10-22T11:16:23.833Z,18.92
2022-10-22T11:17:23.844Z,18.92
2022-10-22T11:18:23.808Z,18.92
2022-10-22T11:19:39.607Z,18.87
2022-10-22T11:20:29.809Z,18.82
2022-10-22T11:21:23.778Z,18.87
2022-10-22T11:22:26.780Z,18.87
2022-10-22T11:23:24.036Z,18.91
2022-10-22T11:24:23.744Z,18.91
2022-10-22T11:25:23.750Z,18.90
2022-10-22T11:26:23.719Z,18.91
2022-10-22T11:27:23.718Z,18.95
2022-10-22T11:28:23.697Z,19.00
2022-10-22T11:29:23.690Z,18.98
2022-10-22T11:30:23.680Z,18.99
2022-10-22T11:31:28.685Z,19.10
2022-10-22T11:32:23.661Z,19.11
2022-10-22T11:33:23.645Z,19.22
2022-10-22T11:34:35.798Z,19.32
2022-10-22T11:35:25.932Z,19.33
2022-10-22T11:36:23.637Z,19.37
2022-10-22T11:37:23.610Z,19.37
2022-10-22T11:38:23.583Z,19.29
2022-10-22T11:39:23.573Z,19.11
2022-10-22T11:40:23.561Z,19.07
2022-10-22T11:41:23.568Z,19.10
2022-10-22T11:42:28.570Z,19.06
2022-10-22T11:43:23.529Z,19.21
2022-10-22T11:44:23.533Z,19.19
2022-10-22T11:45:23.505Z,19.22
2022-10-22T11:46:23.493Z,19.21
2022-10-22T11:47:23.509Z,19.36
2022-10-22T11:48:23.509Z,19.25
2022-10-22T11:49:23.460Z,19.31
2022-10-22T11:50:23.447Z,19.31
2022-10-22T11:51:23.436Z,19.32
2022-10-22T11:52:23.440Z,19.31
2022-10-22T11:53:28.441Z,19.39
2022-10-22T11:54:23.401Z,19.31
2022-10-22T11:55:23.390Z,19.29
2022-10-22T11:56:23.377Z,19.25
2022-10-22T11:57:23.423Z,19.37
2022-10-22T11:58:23.370Z,19.22
2022-10-22T11:59:23.346Z,19.28
2022-10-22T12:00:23.340Z,19.33
2022-10-22T12:01:23.361Z,19.32
2022-10-22T12:02:23.317Z,19.43
2022-10-22T12:03:23.318Z,19.48
2022-10-22T12:04:28.363Z,19.50
2022-10-22T12:05:23.279Z,19.54
2022-10-22T12:06:23.309Z,19.54
2022-10-22T12:07:23.254Z,19.51
2022-10-22T12:08:23.252Z,19.54
2022-10-22T12:09:23.251Z,19.54
2022-10-22T12:10:23.234Z,19.50
2022-10-22T12:11:23.212Z,19.47
2022-10-22T12:12:23.196Z,19.46
2022-10-22T12:13:23.217Z,19.46
2022-10-22T12:14:23.176Z,19.43
2022-10-22T12:15:28.183Z,19.46
2022-10-22T12:16:32.225Z,19.54
2022-10-22T12:17:24.164Z,19.54
2022-10-22T12:18:23.142Z,19.47
2022-10-22T12:19:23.125Z,19.59
2022-10-22T12:20:23.104Z,19.56
2022-10-22T12:21:23.095Z,19.69
2022-10-22T12:22:23.081Z,19.62
2022-10-22T12:23:23.087Z,19.63
2022-10-22T12:24:23.061Z,19.56
2022-10-22T12:25:23.053Z,19.54
2022-10-22T12:26:28.081Z,19.54
2022-10-22T12:27:23.250Z,19.54
2022-10-22T12:28:23.041Z,19.56
2022-10-22T12:29:23.028Z,19.61
2022-10-22T12:30:22.992Z,19.68
2022-10-22T12:31:22.981Z,19.62
2022-10-22T12:32:22.983Z,19.68
2022-10-22T12:33:22.971Z,19.56
2022-10-22T12:34:22.950Z,19.61
2022-10-22T12:35:22.933Z,19.68
2022-10-22T12:36:22.925Z,19.68
2022-10-22T12:37:27.933Z,19.63
2022-10-22T12:38:22.910Z,19.62
2022-10-22T12:39:22.898Z,19.62
2022-10-22T12:40:22.877Z,19.65
2022-10-22T12:41:22.866Z,19.69
2022-10-22T12:42:22.860Z,19.63
2022-10-22T12:43:22.852Z,19.61
2022-10-22T12:44:22.836Z,19.68
2022-10-22T12:45:22.840Z,19.63
2022-10-22T12:46:22.810Z,19.63
2022-10-22T12:47:22.799Z,19.76
2022-10-22T12:48:27.825Z,19.71
2022-10-22T12:49:22.776Z,19.59
2022-10-22T12:50:22.766Z,19.71
2022-10-22T12:51:22.779Z,19.74
2022-10-22T12:52:22.744Z,19.66
2022-10-22T12:53:22.739Z,19.63
2022-10-22T12:54:22.724Z,19.62
2022-10-22T12:55:22.707Z,19.55
2022-10-22T12:56:22.696Z,19.58
2022-10-22T12:57:22.716Z,19.65
2022-10-22T12:58:22.687Z,19.47
2022-10-22T12:59:27.685Z,19.50
2022-10-22T13:00:22.717Z,19.54
2022-10-22T13:01:22.659Z,19.56
2022-10-22T13:02:22.702Z,19.61
2022-10-22T13:03:22.631Z,19.59
2022-10-22T13:04:22.608Z,19.58
2022-10-22T13:05:22.594Z,19.63
2022-10-22T13:06:22.583Z,19.68
2022-10-22T13:07:22.621Z,19.66
2022-10-22T13:08:22.610Z,19.62
2022-10-22T13:09:25.339Z,19.77
2022-10-22T13:10:28.578Z,19.76
2022-10-22T13:11:22.534Z,19.77
2022-10-22T13:12:22.517Z,19.84
2022-10-22T13:13:22.503Z,19.87
2022-10-22T13:14:22.507Z,19.84
2022-10-22T13:15:22.480Z,19.84
2022-10-22T13:16:22.519Z,19.78
2022-10-22T13:17:22.477Z,19.83
2022-10-22T13:18:22.458Z,19.80
2022-10-22T13:19:22.437Z,19.86
2022-10-22T13:20:22.425Z,19.86
2022-10-22T13:21:27.440Z,19.76
2022-10-22T13:22:22.406Z,19.84
2022-10-22T13:23:22.400Z,19.88
2022-10-22T13:24:22.380Z,19.84
2022-10-22T13:25:22.367Z,19.83
2022-10-22T13:26:22.357Z,19.87
2022-10-22T13:27:22.342Z,19.81
2022-10-22T13:28:22.352Z,19.87
2022-10-22T13:29:22.320Z,19.87
2022-10-22T13:30:22.314Z,19.88
2022-10-22T13:31:22.300Z,19.86
2022-10-22T13:32:27.327Z,19.88
2022-10-22T13:33:22.282Z,20.01
2022-10-22T13:34:22.279Z,19.88
2022-10-22T13:35:22.268Z,19.99
2022-10-22T13:36:22.243Z,19.95
2022-10-22T13:37:22.232Z,19.96
2022-10-22T13:38:22.221Z,19.98
2022-10-22T13:39:22.226Z,19.87
2022-10-22T13:40:22.199Z,20.01
2022-10-22T13:41:22.185Z,19.86
2022-10-22T13:42:22.177Z,19.87
2022-10-22T13:43:27.185Z,19.81
2022-10-22T13:44:22.168Z,19.83
2022-10-22T13:45:22.139Z,19.81
2022-10-22T13:46:22.132Z,19.86
2022-10-22T13:47:22.116Z,19.88
2022-10-22T13:48:22.127Z,19.84
2022-10-22T13:49:22.110Z,19.92
2022-10-22T13:50:22.089Z,19.95
2022-10-22T13:51:22.072Z,19.94
2022-10-22T13:52:22.067Z,20.03
2022-10-22T13:53:22.050Z,20.01
2022-10-22T13:54:27.070Z,19.94
2022-10-22T13:55:22.030Z,20.05
2022-10-22T13:56:22.017Z,20.02
2022-10-22T13:57:22.010Z,20.03
2022-10-22T13:58:21.995Z,20.06
2022-10-22T13:59:23.815Z,19.99
2022-10-22T14:00:21.989Z,20.01
2022-10-22T14:01:22.009Z,20.01
2022-10-22T14:02:21.948Z,20.02
2022-10-22T14:03:21.936Z,20.06
2022-10-22T14:04:22.010Z,20.05
2022-10-22T14:05:26.934Z,20.08
2022-10-22T14:06:21.988Z,20.08
2022-10-22T14:07:21.889Z,19.98
2022-10-22T14:08:21.880Z,19.98
2022-10-22T14:09:21.929Z,20.06
2022-10-22T14:10:21.857Z,19.98
2022-10-22T14:11:21.853Z,19.98
2022-10-22T14:12:21.834Z,19.98
2022-10-22T14:13:21.825Z,19.98
2022-10-22T14:14:21.829Z,20.01
2022-10-22T14:15:21.800Z,20.06
2022-10-22T14:16:26.811Z,20.06
2022-10-22T14:17:21.798Z,20.08
2022-10-22T14:18:21.770Z,20.08
2022-10-22T14:19:21.764Z,20.10
2022-10-22T14:20:21.773Z,20.13
2022-10-22T14:21:21.732Z,20.08
2022-10-22T14:22:21.722Z,20.06
2022-10-22T14:23:21.709Z,20.13
2022-10-22T14:24:21.709Z,20.08
2022-10-22T14:25:21.689Z,20.10
2022-10-22T14:26:21.676Z,19.96
2022-10-22T14:27:26.684Z,20.08
2022-10-22T14:28:21.653Z,20.08
2022-10-22T14:29:21.650Z,20.06
2022-10-22T14:30:21.629Z,20.03
2022-10-22T14:31:21.618Z,20.02
2022-10-22T14:32:21.631Z,20.05
2022-10-22T14:33:22.573Z,19.96
2022-10-22T14:34:21.595Z,20.02
2022-10-22T14:35:21.573Z,19.94
2022-10-22T14:36:21.582Z,20.01
2022-10-22T14:37:21.554Z,19.96
2022-10-22T14:38:26.560Z,19.98
2022-10-22T14:39:21.536Z,19.99
2022-10-22T14:40:21.518Z,20.02
2022-10-22T14:41:21.503Z,20.03
2022-10-22T14:42:21.493Z,19.99
2022-10-22T14:43:21.489Z,20.03
2022-10-22T14:44:21.479Z,20.08
2022-10-22T14:45:21.459Z,20.13
2022-10-22T14:46:21.449Z,20.23
2022-10-22T14:47:21.445Z,20.17
2022-10-22T14:48:21.437Z,20.08
2022-10-22T14:49:26.445Z,20.10
2022-10-22T14:50:21.403Z,20.08
2022-10-22T14:51:21.409Z,20.10
2022-10-22T14:52:21.398Z,20.11
2022-10-22T14:53:21.376Z,20.16
2022-10-22T14:54:21.371Z,20.10
2022-10-22T14:55:21.344Z,20.13
2022-10-22T14:56:21.518Z,20.18
2022-10-22T14:57:21.322Z,20.17
2022-10-22T14:58:21.313Z,20.17
2022-10-22T14:59:21.317Z,20.18
2022-10-22T15:00:26.384Z,20.20
2022-10-22T15:01:21.277Z,20.11
2022-10-22T15:02:21.267Z,20.16
2022-10-22T15:03:21.260Z,20.08
2022-10-22T15:04:21.255Z,20.13
2022-10-22T15:05:21.262Z,20.21
2022-10-22T15:06:21.251Z,20.08
2022-10-22T15:07:21.208Z,20.06
2022-10-22T15:08:21.255Z,20.01
2022-10-22T15:09:21.257Z,20.06
2022-10-22T15:10:21.176Z,20.02
2022-10-22T15:11:26.183Z,20.06
2022-10-22T15:12:21.152Z,19.96
2022-10-22T15:13:21.152Z,20.06
2022-10-22T15:14:21.143Z,20.02
2022-10-22T15:15:22.766Z,19.96
2022-10-22T15:16:21.112Z,20.08
2022-10-22T15:17:21.106Z,20.01
2022-10-22T15:18:21.084Z,19.98
2022-10-22T15:19:21.082Z,20.01
2022-10-22T15:20:21.069Z,20.01
2022-10-22T15:21:21.051Z,19.98
2022-10-22T15:22:26.065Z,19.99
2022-10-22T15:23:21.026Z,19.81
2022-10-22T15:24:21.046Z,19.86
2022-10-22T15:25:21.005Z,19.87
2022-10-22T15:26:20.995Z,19.88
2022-10-22T15:27:20.982Z,19.95
2022-10-22T15:28:20.971Z,19.83
2022-10-22T15:29:20.974Z,19.92
2022-10-22T15:30:20.948Z,19.80
2022-10-22T15:31:20.956Z,19.84
2022-10-22T15:32:20.926Z,19.88
2022-10-22T15:33:25.939Z,19.84
2022-10-22T15:34:20.913Z,19.86
2022-10-22T15:35:20.910Z,19.83
2022-10-22T15:36:20.904Z,19.83
2022-10-22T15:37:20.867Z,19.86
2022-10-22T15:38:21.017Z,19.80
2022-10-22T15:39:20.863Z,19.84
2022-10-22T15:40:20.862Z,19.77
2022-10-22T15:41:20.843Z,19.77
2022-10-22T15:42:20.816Z,19.74
2022-10-22T15:43:20.799Z,19.76
2022-10-22T15:44:25.832Z,19.80
2022-10-22T15:45:20.782Z,19.71
2022-10-22T15:46:20.772Z,19.78
2022-10-22T15:47:20.762Z,19.65
2022-10-22T15:48:20.748Z,19.62
2022-10-22T15:49:20.745Z,19.56
2022-10-22T15:50:20.723Z,19.58
2022-10-22T15:51:20.710Z,19.59
2022-10-22T15:52:20.698Z,19.58
2022-10-22T15:53:20.687Z,19.54
2022-10-22T15:54:20.715Z,19.48
2022-10-22T15:55:25.745Z,19.54
2022-10-22T15:56:20.694Z,19.54
2022-10-22T15:57:20.693Z,19.54
2022-10-22T15:58:20.633Z,19.46
2022-10-22T15:59:20.618Z,19.48
2022-10-22T16:00:20.641Z,19.43
2022-10-22T16:01:20.721Z,19.43
2022-10-22T16:02:20.589Z,19.37
2022-10-22T16:03:20.652Z,19.37
2022-10-22T16:04:20.622Z,19.33
2022-10-22T16:05:20.564Z,19.37
2022-10-22T16:06:25.572Z,19.37
2022-10-22T16:07:23.878Z,19.36
2022-10-22T16:08:20.517Z,19.33
2022-10-22T16:09:20.662Z,19.32
2022-10-22T16:10:20.505Z,19.31
2022-10-22T16:11:20.500Z,19.18
2022-10-22T16:12:20.480Z,19.18
2022-10-22T16:13:20.458Z,19.21
2022-10-22T16:14:20.449Z,19.22
2022-10-22T16:15:20.457Z,19.16
2022-10-22T16:16:20.451Z,19.08
2022-10-22T16:17:25.435Z,19.11
2022-10-22T16:18:20.419Z,19.13
2022-10-22T16:19:20.390Z,18.99
2022-10-22T16:20:20.404Z,19.00
2022-10-22T16:21:20.372Z,18.98
2022-10-22T16:22:20.361Z,18.91
2022-10-22T16:23:20.347Z,18.87
2022-10-22T16:24:20.336Z,18.90
2022-10-22T16:25:20.332Z,18.85
2022-10-22T16:26:20.313Z,18.85
2022-10-22T16:27:20.319Z,18.82
2022-10-22T16:28:25.363Z,18.75
2022-10-22T16:29:20.280Z,18.87
2022-10-22T16:30:20.277Z,18.72
2022-10-22T16:31:20.260Z,18.75
2022-10-22T16:32:20.244Z,18.67
2022-10-22T16:33:20.232Z,18.66
2022-10-22T16:34:20.224Z,18.63
2022-10-22T16:35:20.220Z,18.57
2022-10-22T16:36:20.199Z,18.52
2022-10-22T16:37:20.203Z,18.54
2022-10-22T16:38:20.180Z,18.48
2022-10-22T16:39:25.209Z,18.44
2022-10-22T16:40:20.167Z,18.36
2022-10-22T16:41:20.140Z,18.36
2022-10-22T16:42:20.131Z,18.50
2022-10-22T16:43:20.138Z,18.42
2022-10-22T16:44:20.131Z,18.47
2022-10-22T16:45:20.180Z,18.42
2022-10-22T16:46:20.099Z,18.33
2022-10-22T16:47:20.088Z,18.35
2022-10-22T16:48:20.078Z,18.35
2022-10-22T16:49:20.057Z,18.32
2022-10-22T16:50:25.071Z,18.41
2022-10-22T16:51:20.027Z,18.36
2022-10-22T16:52:20.015Z,18.35
2022-10-22T16:53:20.005Z,18.26
2022-10-22T16:54:19.993Z,18.27
2022-10-22T16:55:19.995Z,18.27
2022-10-22T16:56:19.969Z,18.27